createdAt,value
2023-04-27T00:01:11.180Z,61.37
2023-04-27T00:03:38.667Z,61.47
2023-04-27T00:06:05.718Z,60.99
2023-04-27T00:08:32.438Z,61.31
2023-04-27T00:10:59.357Z,62.08
2023-04-27T00:13:26.903Z,61.87
2023-04-27T00:15:53.889Z,62.10
2023-04-27T00:18:20.939Z,62.36
2023-04-27T00:20:47.862Z,61.95
2023-04-27T00:23:14.604Z,62.74
2023-04-27T00:25:41.443Z,62.54
2023-04-27T00:28:08.158Z,62.57
2023-04-27T00:30:35.926Z,62.34
2023-04-27T00:33:02.895Z,62.91
2023-04-27T00:35:29.693Z,62.66
2023-04-27T00:37:58.371Z,62.05
2023-04-27T00:40:25.177Z,62.98
2023-04-27T00:42:52.748Z,63.08
2023-04-27T00:45:19.542Z,63.06
2023-04-27T00:47:46.467Z,62.87
2023-04-27T00:50:13.366Z,62.46
2023-04-27T00:52:40.104Z,63.04
2023-04-27T00:55:07.589Z,62.94
2023-04-27T00:57:34.468Z,62.31
2023-04-27T01:00:02.183Z,62.67
2023-04-27T01:02:30.182Z,61.59
2023-04-27T01:04:57.195Z,61.88
2023-04-27T01:07:27.088Z,62.25
2023-04-27T01:09:53.899Z,63.23
2023-04-27T01:12:20.959Z,63.03
2023-04-27T01:14:48.935Z,62.97
2023-04-27T01:17:15.744Z,62.86
2023-04-27T01:19:42.476Z,63.22
2023-04-27T01:22:10.349Z,63.04
2023-04-27T01:24:38.096Z,62.57
2023-04-27T01:27:05.614Z,62.82
2023-04-27T01:29:32.654Z,62.00
2023-04-27T01:31:59.411Z,62.34
2023-04-27T01:34:26.879Z,62.72
2023-04-27T01:36:53.630Z,62.96
2023-04-27T01:39:21.636Z,63.26
2023-04-27T01:41:48.501Z,62.99
2023-04-27T01:44:15.271Z,62.69
2023-04-27T01:46:42.152Z,63.08
2023-04-27T01:49:09.113Z,62.18
2023-04-27T01:51:35.866Z,62.31
2023-04-27T01:54:02.667Z,62.42
2023-04-27T01:56:29.556Z,61.67
2023-04-27T01:58:56.382Z,62.69
2023-04-27T02:01:24.341Z,61.84
2023-04-27T02:03:51.271Z,62.26
2023-04-27T02:06:18.179Z,62.76
2023-04-27T02:08:46.264Z,63.56
2023-04-27T02:11:13.360Z,63.78
2023-04-27T02:13:40.101Z,63.26
2023-04-27T02:16:07.470Z,63.53
2023-04-27T02:18:35.073Z,63.55
2023-04-27T02:21:02.242Z,63.87
2023-04-27T02:23:29.061Z,63.70
2023-04-27T02:25:55.846Z,63.74
2023-04-27T02:28:22.576Z,63.06
2023-04-27T02:30:49.692Z,62.44
2023-04-27T02:33:16.492Z,62.44
2023-04-27T02:35:43.301Z,62.37
2023-04-27T02:38:10.605Z,61.86
2023-04-27T02:40:38.373Z,61.80
2023-04-27T02:43:06.640Z,61.79
2023-04-27T02:45:38.009Z,61.61
2023-04-27T02:48:06.273Z,62.18
2023-04-27T02:50:34.175Z,62.29
2023-04-27T02:53:01.287Z,63.01
2023-04-27T02:55:29.046Z,63.01
2023-04-27T02:57:55.921Z,63.47
2023-04-27T03:00:23.007Z,64.32
2023-04-27T03:02:49.863Z,64.34
2023-04-27T03:05:16.930Z,63.87
2023-04-27T03:07:43.728Z,63.64
2023-04-27T03:10:11.248Z,64.10
2023-04-27T03:12:38.025Z,63.76
2023-04-27T03:15:05.040Z,64.19
2023-04-27T03:17:31.959Z,64.41
2023-04-27T03:19:58.775Z,63.31
2023-04-27T03:22:25.791Z,63.44
2023-04-27T03:24:52.604Z,64.48
2023-04-27T03:27:19.350Z,64.37
2023-04-27T03:29:46.334Z,63.82
2023-04-27T03:32:13.166Z,62.35
2023-04-27T03:34:40.221Z,61.85
2023-04-27T03:37:07.107Z,62.22
2023-04-27T03:39:37.021Z,63.10
2023-04-27T03:42:04.302Z,63.97
2023-04-27T03:44:33.468Z,63.95
2023-04-27T03:47:01.650Z,64.62
2023-04-27T03:49:28.938Z,64.79
2023-04-27T03:51:56.340Z,65.23
2023-04-27T03:54:23.095Z,64.97
2023-04-27T03:56:49.901Z,64.24
2023-04-27T03:59:17.763Z,64.18
2023-04-27T04:01:49.318Z,64.35
2023-04-27T04:04:16.792Z,65.04
2023-04-27T04:06:43.645Z,65.11
2023-04-27T04:09:13.065Z,64.98
2023-04-27T04:11:40.477Z,65.50
2023-04-27T04:14:10.106Z,65.01
2023-04-27T04:16:37.604Z,65.52
2023-04-27T04:19:04.372Z,65.96
2023-04-27T04:21:32.007Z,64.77
2023-04-27T04:23:58.686Z,65.22
2023-04-27T04:26:25.430Z,65.28
2023-04-27T04:28:52.437Z,65.33
2023-04-27T04:31:21.615Z,65.33
2023-04-27T04:33:48.607Z,65.54
2023-04-27T04:36:15.967Z,65.48
2023-04-27T04:38:42.841Z,65.48
2023-04-27T04:41:10.456Z,65.73
2023-04-27T04:43:37.562Z,65.30
2023-04-27T04:46:06.932Z,65.60
2023-04-27T04:48:34.513Z,65.19
2023-04-27T04:51:01.335Z,65.58
2023-04-27T04:53:29.291Z,66.52
2023-04-27T04:55:56.003Z,65.40
2023-04-27T04:58:22.700Z,66.40
2023-04-27T05:00:49.476Z,65.98
2023-04-27T05:03:16.681Z,65.79
2023-04-27T05:05:43.416Z,65.26
2023-04-27T05:08:10.132Z,64.06
2023-04-27T05:10:36.828Z,63.87
2023-04-27T05:13:05.231Z,63.82
2023-04-27T05:15:33.192Z,63.77
2023-04-27T05:17:59.967Z,63.42
2023-04-27T05:20:26.688Z,63.97
2023-04-27T05:22:53.358Z,64.42
2023-04-27T05:25:20.030Z,64.65
2023-04-27T05:27:46.726Z,64.93
2023-04-27T05:30:13.713Z,64.67
2023-04-27T05:32:40.456Z,64.66
2023-04-27T05:35:07.371Z,64.91
2023-04-27T05:37:34.045Z,65.20
2023-04-27T05:40:01.164Z,65.22
2023-04-27T05:42:27.933Z,65.00
2023-04-27T05:44:54.796Z,65.09
2023-04-27T05:47:22.020Z,65.02
2023-04-27T05:49:52.619Z,64.69
2023-04-27T05:52:20.069Z,64.26
2023-04-27T05:54:50.491Z,64.74
2023-04-27T05:57:17.340Z,64.49
2023-04-27T05:59:44.077Z,64.43
2023-04-27T06:02:10.996Z,64.24
2023-04-27T06:04:38.398Z,64.32
2023-04-27T06:07:10.346Z,65.22
2023-04-27T06:09:37.634Z,64.97
2023-04-27T06:12:05.354Z,64.69
2023-04-27T06:14:33.281Z,64.45
2023-04-27T06:16:59.955Z,64.58
2023-04-27T06:19:26.870Z,63.77
2023-04-27T06:21:54.731Z,63.42
2023-04-27T06:24:22.180Z,63.42
2023-04-27T06:26:49.692Z,62.54
2023-04-27T06:29:16.392Z,62.64
2023-04-27T06:31:43.222Z,61.40
2023-04-27T06:34:09.951Z,61.79
2023-04-27T06:36:36.875Z,61.36
2023-04-27T06:39:03.722Z,60.75
2023-04-27T06:41:30.622Z,59.94
2023-04-27T06:43:58.593Z,59.36
2023-04-27T06:46:26.080Z,59.19
2023-04-27T06:48:53.189Z,58.58
2023-04-27T06:51:19.897Z,58.59
2023-04-27T06:53:46.592Z,58.72
2023-04-27T06:56:13.277Z,58.01
2023-04-27T06:58:39.998Z,58.00
2023-04-27T07:01:06.854Z,57.85
2023-04-27T07:03:37.083Z,57.51
2023-04-27T07:06:04.101Z,57.81
2023-04-27T07:08:30.841Z,57.85
2023-04-27T07:10:57.563Z,57.69
2023-04-27T07:13:24.258Z,57.68
2023-04-27T07:15:57.602Z,57.05
2023-04-27T07:18:24.432Z,57.30
2023-04-27T07:20:51.136Z,57.67
2023-04-27T07:23:17.868Z,57.16
2023-04-27T07:25:45.471Z,56.71
2023-04-27T07:28:12.885Z,56.49
2023-04-27T07:30:39.692Z,56.56
2023-04-27T07:33:07.256Z,56.40
2023-04-27T07:35:34.036Z,56.50
2023-04-27T07:38:03.803Z,56.34
2023-04-27T07:40:32.507Z,56.37
2023-04-27T07:42:59.796Z,56.22
2023-04-27T07:45:33.136Z,56.34
2023-04-27T07:48:00.641Z,56.25
2023-04-27T07:50:30.979Z,56.17
2023-04-27T07:52:58.012Z,56.33
2023-04-27T07:55:25.784Z,56.04
2023-04-27T07:57:56.754Z,56.00
2023-04-27T08:00:25.199Z,56.11
2023-04-27T08:02:55.235Z,55.91
2023-04-27T08:05:22.401Z,56.12
2023-04-27T08:07:49.930Z,56.22
2023-04-27T08:10:16.896Z,56.17
2023-04-27T08:12:43.566Z,56.41
2023-04-27T08:15:11.065Z,56.33
2023-04-27T08:17:40.618Z,56.29
2023-04-27T08:20:11.278Z,56.33
2023-04-27T08:22:39.001Z,56.46
2023-04-27T08:25:07.144Z,56.86
2023-04-27T08:27:34.552Z,56.91
2023-04-27T08:30:01.636Z,56.60
2023-04-27T08:32:30.146Z,56.51
2023-04-27T08:34:57.135Z,55.74
2023-04-27T08:37:23.855Z,55.94
2023-04-27T08:39:50.635Z,55.59
2023-04-27T08:42:17.330Z,55.66
2023-04-27T08:44:44.950Z,55.45
2023-04-27T08:47:11.824Z,55.33
2023-04-27T08:49:38.656Z,55.26
2023-04-27T08:52:14.100Z,55.48
2023-04-27T08:54:40.884Z,55.34
2023-04-27T08:57:14.471Z,55.38
2023-04-27T08:59:41.285Z,55.10
2023-04-27T09:02:21.203Z,54.48
2023-04-27T09:04:48.271Z,54.90
2023-04-27T09:07:16.504Z,54.47
2023-04-27T09:09:44.216Z,54.94
2023-04-27T09:12:21.512Z,53.62
2023-04-27T09:14:57.950Z,53.51
2023-04-27T09:17:26.419Z,54.39
2023-04-27T09:20:04.965Z,54.66
2023-04-27T09:22:31.726Z,54.13
2023-04-27T09:24:58.377Z,53.77
2023-04-27T09:27:25.062Z,53.56
2023-04-27T09:29:51.938Z,54.02
2023-04-27T09:32:20.609Z,53.82
2023-04-27T09:34:47.309Z,53.82
2023-04-27T09:37:14.511Z,53.72
2023-04-27T09:39:42.087Z,53.68
2023-04-27T09:42:11.934Z,53.92
2023-04-27T09:44:38.624Z,53.92
2023-04-27T09:47:06.563Z,53.81
2023-04-27T09:49:34.563Z,53.64
2023-04-27T09:52:01.290Z,53.19
2023-04-27T09:54:30.286Z,51.04
2023-04-27T09:57:09.238Z,51.52
2023-04-27T09:59:40.788Z,51.50
2023-04-27T10:02:17.201Z,52.33
2023-04-27T10:04:53.563Z,52.51
2023-04-27T10:07:20.569Z,52.64
2023-04-27T10:09:49.213Z,52.63
2023-04-27T10:12:22.671Z,52.56
2023-04-27T10:14:57.375Z,53.34
2023-04-27T10:17:34.519Z,52.13
2023-04-27T10:20:09.532Z,52.06
2023-04-27T10:22:43.343Z,52.27
2023-04-27T10:25:16.519Z,51.88
2023-04-27T10:27:43.031Z,50.98
2023-04-27T10:30:13.632Z,52.48
2023-04-27T10:32:59.396Z,52.70
2023-04-27T10:35:40.816Z,51.92
2023-04-27T10:38:17.103Z,52.19
2023-04-27T10:41:05.172Z,52.35
2023-04-27T10:43:34.439Z,51.47
2023-04-27T10:46:09.113Z,52.00
2023-04-27T10:48:35.803Z,52.38
2023-04-27T10:51:03.582Z,51.52
2023-04-27T10:53:35.398Z,51.06
2023-04-27T10:56:02.742Z,51.46
2023-04-27T10:58:37.831Z,51.67
2023-04-27T11:01:24.006Z,51.21
2023-04-27T11:03:56.457Z,51.19
2023-04-27T11:06:23.168Z,51.55
2023-04-27T11:08:49.893Z,51.18
2023-04-27T11:11:17.266Z,51.76
2023-04-27T11:13:44.690Z,51.54
2023-04-27T11:16:11.557Z,51.36
2023-04-27T11:18:38.290Z,51.22
2023-04-27T11:21:16.759Z,49.84
2023-04-27T11:23:43.623Z,51.07
2023-04-27T11:26:11.684Z,51.00
2023-04-27T11:28:38.891Z,50.72
2023-04-27T11:31:06.824Z,50.41
2023-04-27T11:33:33.777Z,49.78
2023-04-27T11:36:00.690Z,50.44
2023-04-27T11:38:33.493Z,50.20
2023-04-27T11:41:06.811Z,49.87
2023-04-27T11:43:34.173Z,50.54
2023-04-27T11:46:04.736Z,50.16
2023-04-27T11:48:31.570Z,50.55
2023-04-27T11:51:01.700Z,50.42
2023-04-27T11:53:37.445Z,50.34
2023-04-27T11:56:06.140Z,50.11
2023-04-27T11:58:34.065Z,49.37
2023-04-27T12:01:00.828Z,49.42
2023-04-27T12:03:28.693Z,49.14
2023-04-27T12:05:55.772Z,49.08
2023-04-27T12:08:23.318Z,49.05
2023-04-27T12:10:50.108Z,48.60
2023-04-27T12:13:16.780Z,48.18
2023-04-27T12:15:43.617Z,48.41
2023-04-27T12:18:11.500Z,48.17
2023-04-27T12:20:38.302Z,47.45
2023-04-27T12:23:05.018Z,48.27
2023-04-27T12:25:31.712Z,48.32
2023-04-27T12:27:58.366Z,49.02
2023-04-27T12:30:25.018Z,48.85
2023-04-27T12:32:51.935Z,49.00
2023-04-27T12:35:18.750Z,49.10
2023-04-27T12:37:45.549Z,48.38
2023-04-27T12:40:12.421Z,48.32
2023-04-27T12:42:39.113Z,48.13
2023-04-27T12:45:06.226Z,47.88
2023-04-27T12:47:54.073Z,47.67
2023-04-27T12:50:21.509Z,46.86
2023-04-27T12:52:48.264Z,47.18
2023-04-27T12:55:25.151Z,47.80
2023-04-27T12:57:58.652Z,46.99
2023-04-27T13:00:25.497Z,46.85
2023-04-27T13:02:53.052Z,47.19
2023-04-27T13:05:21.017Z,47.04
2023-04-27T13:07:47.952Z,47.07
2023-04-27T13:10:14.619Z,47.29
2023-04-27T13:12:41.446Z,47.01
2023-04-27T13:15:08.950Z,47.02
2023-04-27T13:17:35.687Z,46.40
2023-04-27T13:20:02.474Z,46.51
2023-04-27T13:22:29.193Z,46.23
2023-04-27T13:24:56.582Z,46.23
2023-04-27T13:27:25.327Z,46.43
2023-04-27T13:29:52.054Z,46.35
2023-04-27T13:32:18.763Z,46.76
2023-04-27T13:34:45.708Z,46.85
2023-04-27T13:37:12.443Z,46.64
2023-04-27T13:39:39.208Z,45.95
2023-04-27T13:42:06.599Z,46.08
2023-04-27T13:44:33.697Z,46.03
2023-04-27T13:47:00.664Z,46.20
2023-04-27T13:49:27.426Z,45.41
2023-04-27T13:51:54.115Z,45.48
2023-04-27T13:54:21.436Z,45.58
2023-04-27T13:56:48.396Z,46.00
2023-04-27T13:59:16.575Z,46.20
2023-04-27T14:01:43.691Z,46.34
2023-04-27T14:04:10.775Z,46.61
2023-04-27T14:06:37.713Z,45.62
2023-04-27T14:09:04.996Z,46.17
2023-04-27T14:11:37.177Z,46.39
2023-04-27T14:14:08.959Z,45.39
2023-04-27T14:16:35.661Z,45.87
2023-04-27T14:19:02.437Z,46.05
2023-04-27T14:21:29.215Z,45.91
2023-04-27T14:23:56.092Z,45.99
2023-04-27T14:26:22.828Z,46.95
2023-04-27T14:28:49.564Z,46.28
2023-04-27T14:31:16.464Z,45.81
2023-04-27T14:33:43.188Z,46.37
2023-04-27T14:36:09.851Z,46.31
2023-04-27T14:38:36.498Z,46.61
2023-04-27T14:41:03.150Z,46.73
2023-04-27T14:43:29.831Z,46.73
2023-04-27T14:46:02.122Z,46.68
2023-04-27T14:48:35.150Z,46.55
2023-04-27T14:51:02.165Z,46.15
2023-04-27T14:53:28.897Z,46.21
2023-04-27T14:55:55.605Z,45.74
2023-04-27T14:58:22.290Z,46.12
2023-04-27T15:00:50.432Z,45.47
2023-04-27T15:03:17.176Z,46.31
2023-04-27T15:05:44.082Z,46.24
2023-04-27T15:08:11.553Z,46.47
2023-04-27T15:10:38.214Z,46.32
2023-04-27T15:13:04.887Z,46.39
2023-04-27T15:15:31.556Z,46.19
2023-04-27T15:17:58.778Z,46.59
2023-04-27T15:20:25.606Z,46.38
2023-04-27T15:22:52.616Z,45.94
2023-04-27T15:25:19.324Z,46.12
2023-04-27T15:27:46.071Z,45.96
2023-04-27T15:30:13.907Z,45.61
2023-04-27T15:32:40.693Z,45.62
2023-04-27T15:35:08.333Z,45.70
2023-04-27T15:37:36.196Z,45.82
2023-04-27T15:40:03.996Z,45.66
2023-04-27T15:42:30.771Z,47.35
2023-04-27T15:44:57.940Z,46.35
2023-04-27T15:47:24.662Z,46.03
2023-04-27T15:49:57.513Z,46.34
2023-04-27T15:52:25.619Z,46.38
2023-04-27T15:54:52.396Z,46.16
2023-04-27T15:57:19.275Z,45.96
2023-04-27T15:59:45.973Z,46.07
2023-04-27T16:02:13.562Z,46.67
2023-04-27T16:04:40.605Z,46.69
2023-04-27T16:07:07.451Z,46.46
2023-04-27T16:09:34.244Z,46.31
2023-04-27T16:12:01.844Z,47.06
2023-04-27T16:14:28.512Z,46.92
2023-04-27T16:16:59.383Z,46.61
2023-04-27T16:19:28.072Z,47.23
2023-04-27T16:21:54.710Z,47.17
2023-04-27T16:24:21.709Z,46.77
2023-04-27T16:26:48.413Z,46.69
2023-04-27T16:29:15.307Z,46.59
2023-04-27T16:31:42.895Z,46.58
2023-04-27T16:34:09.714Z,46.33
2023-04-27T16:36:36.599Z,46.60
2023-04-27T16:39:05.042Z,47.83
2023-04-27T16:41:31.961Z,48.40
2023-04-27T16:43:58.801Z,48.33
2023-04-27T16:46:25.740Z,48.33
2023-04-27T16:48:52.404Z,47.81
2023-04-27T16:51:19.690Z,47.78
2023-04-27T16:53:46.565Z,48.20
2023-04-27T16:56:14.177Z,48.58
2023-04-27T16:58:41.030Z,48.75
2023-04-27T17:01:07.976Z,48.68
2023-04-27T17:03:36.102Z,48.33
2023-04-27T17:06:03.349Z,48.44
2023-04-27T17:08:30.183Z,48.96
2023-04-27T17:10:56.858Z,49.14
2023-04-27T17:13:23.527Z,49.58
2023-04-27T17:15:51.753Z,49.88
2023-04-27T17:18:18.519Z,50.09
2023-04-27T17:20:45.310Z,50.35
2023-04-27T17:23:11.982Z,50.15
2023-04-27T17:25:38.736Z,50.23
2023-04-27T17:28:05.493Z,50.39
2023-04-27T17:30:32.166Z,50.71
2023-04-27T17:32:58.941Z,50.41
2023-04-27T17:35:26.665Z,50.54
2023-04-27T17:37:53.442Z,50.92
2023-04-27T17:40:21.062Z,50.96
2023-04-27T17:42:48.014Z,50.63
2023-04-27T17:45:15.662Z,50.68
2023-04-27T17:47:42.710Z,50.98
2023-04-27T17:50:09.971Z,51.06
2023-04-27T17:52:37.584Z,51.13
2023-04-27T17:55:04.931Z,51.34
2023-04-27T17:57:31.946Z,51.46
2023-04-27T17:59:58.892Z,51.34
2023-04-27T18:02:26.449Z,51.11
2023-04-27T18:04:53.601Z,51.30
2023-04-27T18:07:20.631Z,51.23
2023-04-27T18:09:47.725Z,51.16
2023-04-27T18:12:14.649Z,51.51
2023-04-27T18:14:41.433Z,51.30
2023-04-27T18:17:08.594Z,51.45
2023-04-27T18:19:35.446Z,51.69
2023-04-27T18:22:02.176Z,51.94
2023-04-27T18:24:28.903Z,51.79
2023-04-27T18:26:55.670Z,51.84
2023-04-27T18:29:22.386Z,51.68
2023-04-27T18:31:53.201Z,51.89
2023-04-27T18:34:19.922Z,51.77
2023-04-27T18:36:51.987Z,51.89
2023-04-27T18:39:19.334Z,52.64
2023-04-27T18:41:46.336Z,52.66
2023-04-27T18:44:13.303Z,52.63
2023-04-27T18:46:40.185Z,52.95
2023-04-27T18:49:06.875Z,53.20
2023-04-27T18:51:33.630Z,53.09
2023-04-27T18:54:00.359Z,52.96
2023-04-27T18:56:27.039Z,53.13
2023-04-27T18:58:53.855Z,53.37
2023-04-27T19:01:24.586Z,53.21
2023-04-27T19:03:51.997Z,53.38
2023-04-27T19:06:20.981Z,53.91
2023-04-27T19:08:48.286Z,53.83
2023-04-27T19:11:15.090Z,53.77
2023-04-27T19:13:43.677Z,53.90
2023-04-27T19:16:11.101Z,54.26
2023-04-27T19:18:38.615Z,54.29
2023-04-27T19:21:07.772Z,54.32
2023-04-27T19:23:35.756Z,54.21
2023-04-27T19:26:12.589Z,54.24
2023-04-27T19:28:40.651Z,54.02
2023-04-27T19:31:07.547Z,54.24
2023-04-27T19:33:34.400Z,54.32
2023-04-27T19:36:01.103Z,54.39
2023-04-27T19:38:28.111Z,54.02
2023-04-27T19:40:54.837Z,53.79
2023-04-27T19:43:21.486Z,54.42
2023-04-27T19:45:51.494Z,54.55
2023-04-27T19:48:18.678Z,54.47
2023-04-27T19:50:45.477Z,54.89
2023-04-27T19:53:12.238Z,54.73
2023-04-27T19:55:40.224Z,55.23
2023-04-27T19:58:07.099Z,55.47
2023-04-27T20:00:34.180Z,56.45
2023-04-27T20:03:01.162Z,56.47
2023-04-27T20:05:28.451Z,55.49
2023-04-27T20:07:55.350Z,56.28
2023-04-27T20:10:22.116Z,56.29
2023-04-27T20:12:56.722Z,55.27
2023-04-27T20:15:24.457Z,55.89
2023-04-27T20:17:52.615Z,55.99
2023-04-27T20:20:19.509Z,55.54
2023-04-27T20:22:46.265Z,56.59
2023-04-27T20:25:14.489Z,55.88
2023-04-27T20:27:41.928Z,55.73
2023-04-27T20:30:09.226Z,55.37
2023-04-27T20:32:36.662Z,56.12
2023-04-27T20:35:04.671Z,56.35
2023-04-27T20:37:32.197Z,56.63
2023-04-27T20:39:59.308Z,56.70
2023-04-27T20:42:27.370Z,56.35
2023-04-27T20:44:54.850Z,56.08
2023-04-27T20:47:22.336Z,56.83
2023-04-27T20:49:49.233Z,57.09
2023-04-27T20:52:16.214Z,56.89
2023-04-27T20:54:42.910Z,57.17
2023-04-27T20:57:13.697Z,57.15
2023-04-27T20:59:41.087Z,57.59
2023-04-27T21:02:07.821Z,58.53
2023-04-27T21:04:34.790Z,58.33
2023-04-27T21:07:01.673Z,57.49
2023-04-27T21:09:28.446Z,57.88
2023-04-27T21:11:55.331Z,58.23
2023-04-27T21:14:22.059Z,57.19
2023-04-27T21:16:48.966Z,57.60
2023-04-27T21:19:17.025Z,57.94
2023-04-27T21:21:43.761Z,58.20
2023-04-27T21:24:10.668Z,58.60
2023-04-27T21:26:37.417Z,58.85
2023-04-27T21:29:05.884Z,59.30
2023-04-27T21:31:33.323Z,59.31
2023-04-27T21:34:00.278Z,59.12
2023-04-27T21:36:27.068Z,59.31
2023-04-27T21:38:53.817Z,59.31
2023-04-27T21:41:20.517Z,59.41
2023-04-27T21:43:47.211Z,59.62
2023-04-27T21:46:13.907Z,60.27
2023-04-27T21:48:40.734Z,59.62
2023-04-27T21:51:07.533Z,59.22
2023-04-27T21:53:34.271Z,59.74
2023-04-27T21:56:00.964Z,59.46
2023-04-27T21:58:27.889Z,59.54
2023-04-27T22:00:54.589Z,60.15
2023-04-27T22:03:22.033Z,60.07
2023-04-27T22:05:50.337Z,60.13
2023-04-27T22:08:17.831Z,60.60
2023-04-27T22:10:44.936Z,60.44
2023-04-27T22:13:18.832Z,60.34
2023-04-27T22:15:47.453Z,60.33
2023-04-27T22:18:15.381Z,59.68
2023-04-27T22:20:42.754Z,59.22
2023-04-27T22:23:09.587Z,59.24
2023-04-27T22:25:36.806Z,60.10
2023-04-27T22:28:03.654Z,60.39
2023-04-27T22:30:30.557Z,60.80
2023-04-27T22:32:57.630Z,60.90
2023-04-27T22:35:27.142Z,61.27
2023-04-27T22:37:55.836Z,61.18
2023-04-27T22:40:22.870Z,60.98
2023-04-27T22:42:49.855Z,60.74
2023-04-27T22:45:17.200Z,60.38
2023-04-27T22:47:44.722Z,60.50
2023-04-27T22:50:12.311Z,60.22
2023-04-27T22:52:42.460Z,60.22
2023-04-27T22:55:10.473Z,60.13
2023-04-27T22:57:37.977Z,59.77
2023-04-27T23:00:05.411Z,59.94
2023-04-27T23:02:32.835Z,59.65
2023-04-27T23:04:59.803Z,60.12
2023-04-27T23:07:26.587Z,60.22
2023-04-27T23:09:54.778Z,60.33
2023-04-27T23:12:22.236Z,61.06
2023-04-27T23:14:49.093Z,61.22
2023-04-27T23:17:15.985Z,61.18
2023-04-27T23:19:42.810Z,61.73
2023-04-27T23:22:09.671Z,61.93
2023-04-27T23:24:36.711Z,62.18
2023-04-27T23:27:03.821Z,62.24
2023-04-27T23:29:31.056Z,62.12
2023-04-27T23:32:04.372Z,62.81
2023-04-27T23:34:34.217Z,62.37
2023-04-27T23:37:01.116Z,62.97
2023-04-27T23:39:28.448Z,62.22
2023-04-27T23:41:55.255Z,62.68
2023-04-27T23:44:22.331Z,63.01
2023-04-27T23:46:49.200Z,62.99
2023-04-27T23:49:16.177Z,62.93
2023-04-27T23:51:42.873Z,63.17
2023-04-27T23:54:09.534Z,63.20
2023-04-27T23:56:36.666Z,62.80
2023-04-27T23:59:03.509Z,62.94
